sensor_id;sensor_type;location;lat;lon;timestamp;temperature;humidity
3504;DHT22;1766;53.490;10.174;2023-07-28T00:00:27;22.90;70.70
3504;DHT22;1766;53.490;10.174;2023-07-28T00:02:29;22.90;70.80
3504;DHT22;1766;53.490;10.174;2023-07-28T00:04:33;22.90;70.80
3504;DHT22;1766;53.490;10.174;2023-07-28T00:06:35;22.90;71.10
3504;DHT22;1766;53.490;10.174;2023-07-28T00:08:40;22.90;71.60
3504;DHT22;1766;53.490;10.174;2023-07-28T00:10:42;22.90;71.00
3504;DHT22;1766;53.490;10.174;2023-07-28T00:12:44;22.90;71.00
3504;DHT22;1766;53.490;10.174;2023-07-28T00:14:45;22.90;71.10
3504;DHT22;1766;53.490;10.174;2023-07-28T00:16:47;22.90;71.00
3504;DHT22;1766;53.490;10.174;2023-07-28T00:18:49;22.90;71.00
3504;DHT22;1766;53.490;10.174;2023-07-28T00:20:51;22.90;71.10
3504;DHT22;1766;53.490;10.174;2023-07-28T00:22:53;22.90;71.90
3504;DHT22;1766;53.490;10.174;2023-07-28T00:24:58;22.90;71.40
3504;DHT22;1766;53.490;10.174;2023-07-28T00:26:59;22.90;71.30
3504;DHT22;1766;53.490;10.174;2023-07-28T00:29:01;22.90;71.40
3504;DHT22;1766;53.490;10.174;2023-07-28T00:31:06;22.90;71.40
3504;DHT22;1766;53.490;10.174;2023-07-28T00:33:08;22.90;71.50
3504;DHT22;1766;53.490;10.174;2023-07-28T00:35:10;22.90;71.60
3504;DHT22;1766;53.490;10.174;2023-07-28T00:37:11;22.90;71.50
3504;DHT22;1766;53.490;10.174;2023-07-28T00:39:13;23.00;71.70
3504;DHT22;1766;53.490;10.174;2023-07-28T00:41:16;23.00;71.80
3504;DHT22;1766;53.490;10.174;2023-07-28T00:43:19;23.00;71.70
3504;DHT22;1766;53.490;10.174;2023-07-28T00:45:21;23.00;71.70
3504;DHT22;1766;53.490;10.174;2023-07-28T00:47:24;22.90;71.80
3504;DHT22;1766;53.490;10.174;2023-07-28T00:49:26;23.00;71.80
3504;DHT22;1766;53.490;10.174;2023-07-28T00:51:28;23.00;71.80
3504;DHT22;1766;53.490;10.174;2023-07-28T00:53:30;23.00;71.80
3504;DHT22;1766;53.490;10.174;2023-07-28T00:55:33;23.00;71.80
3504;DHT22;1766;53.490;10.174;2023-07-28T00:57:37;23.00;72.00
3504;DHT22;1766;53.490;10.174;2023-07-28T00:59:39;23.00;71.90
3504;DHT22;1766;53.490;10.174;2023-07-28T01:01:41;23.00;72.10
3504;DHT22;1766;53.490;10.174;2023-07-28T01:03:43;23.00;72.60
3504;DHT22;1766;53.490;10.174;2023-07-28T01:08:16;23.00;72.20
3504;DHT22;1766;53.490;10.174;2023-07-28T01:10:24;23.00;72.20
3504;DHT22;1766;53.490;10.174;2023-07-28T01:12:29;23.00;72.30
3504;DHT22;1766;53.490;10.174;2023-07-28T01:14:33;23.00;72.10
3504;DHT22;1766;53.490;10.174;2023-07-28T01:16:35;23.00;72.40
3504;DHT22;1766;53.490;10.174;2023-07-28T01:18:37;23.00;72.20
3504;DHT22;1766;53.490;10.174;2023-07-28T01:20:38;23.00;73.10
3504;DHT22;1766;53.490;10.174;2023-07-28T01:22:48;23.00;72.30
3504;DHT22;1766;53.490;10.174;2023-07-28T01:25:24;23.00;72.50
3504;DHT22;1766;53.490;10.174;2023-07-28T01:27:32;23.00;72.40
3504;DHT22;1766;53.490;10.174;2023-07-28T01:29:34;23.00;72.30
3504;DHT22;1766;53.490;10.174;2023-07-28T01:31:37;23.00;72.50
3504;DHT22;1766;53.490;10.174;2023-07-28T01:33:40;23.00;72.50
3504;DHT22;1766;53.490;10.174;2023-07-28T01:35:42;23.00;72.30
3504;DHT22;1766;53.490;10.174;2023-07-28T01:37:44;23.00;72.40
3504;DHT22;1766;53.490;10.174;2023-07-28T01:39:51;23.00;72.40
3504;DHT22;1766;53.490;10.174;2023-07-28T01:41:53;23.00;72.40
3504;DHT22;1766;53.490;10.174;2023-07-28T01:43:58;22.90;72.20
3504;DHT22;1766;53.490;10.174;2023-07-28T01:46:00;23.00;72.50
3504;DHT22;1766;53.490;10.174;2023-07-28T01:48:02;23.00;72.30
3504;DHT22;1766;53.490;10.174;2023-07-28T01:50:03;22.90;72.50
3504;DHT22;1766;53.490;10.174;2023-07-28T01:52:06;23.00;72.70
3504;DHT22;1766;53.490;10.174;2023-07-28T01:54:08;23.00;72.60
3504;DHT22;1766;53.490;10.174;2023-07-28T01:56:10;23.00;72.60
3504;DHT22;1766;53.490;10.174;2023-07-28T01:58:12;23.00;72.70
3504;DHT22;1766;53.490;10.174;2023-07-28T02:00:16;23.00;72.70
3504;DHT22;1766;53.490;10.174;2023-07-28T02:02:18;23.00;72.80
3504;DHT22;1766;53.490;10.174;2023-07-28T02:04:20;23.70;73.40
3504;DHT22;1766;53.490;10.174;2023-07-28T02:06:22;23.00;72.60
3504;DHT22;1766;53.490;10.174;2023-07-28T02:08:25;23.00;72.60
3504;DHT22;1766;53.490;10.174;2023-07-28T02:10:27;23.00;72.70
3504;DHT22;1766;53.490;10.174;2023-07-28T02:12:30;23.00;72.80
3504;DHT22;1766;53.490;10.174;2023-07-28T02:14:32;23.00;72.80
3504;DHT22;1766;53.490;10.174;2023-07-28T02:16:35;23.00;72.80
3504;DHT22;1766;53.490;10.174;2023-07-28T02:18:37;23.00;72.90
3504;DHT22;1766;53.490;10.174;2023-07-28T02:20:39;23.00;72.90
3504;DHT22;1766;53.490;10.174;2023-07-28T02:22:40;23.00;72.90
3504;DHT22;1766;53.490;10.174;2023-07-28T02:24:43;23.00;73.10
3504;DHT22;1766;53.490;10.174;2023-07-28T02:26:45;23.00;73.00
3504;DHT22;1766;53.490;10.174;2023-07-28T02:28:47;23.00;73.00
3504;DHT22;1766;53.490;10.174;2023-07-28T02:30:49;23.00;72.90
3504;DHT22;1766;53.490;10.174;2023-07-28T02:32:52;23.00;73.00
3504;DHT22;1766;53.490;10.174;2023-07-28T02:34:55;23.00;73.10
3504;DHT22;1766;53.490;10.174;2023-07-28T02:36:57;23.00;73.00
3504;DHT22;1766;53.490;10.174;2023-07-28T02:38:59;23.00;73.20
3504;DHT22;1766;53.490;10.174;2023-07-28T02:41:01;23.00;73.00
3504;DHT22;1766;53.490;10.174;2023-07-28T02:43:04;23.00;73.10
3504;DHT22;1766;53.490;10.174;2023-07-28T02:45:07;23.00;73.10
3504;DHT22;1766;53.490;10.174;2023-07-28T02:47:10;23.00;73.30
3504;DHT22;1766;53.490;10.174;2023-07-28T02:49:14;23.00;73.20
3504;DHT22;1766;53.490;10.174;2023-07-28T02:51:16;23.00;73.00
3504;DHT22;1766;53.490;10.174;2023-07-28T02:53:18;23.00;73.10
3504;DHT22;1766;53.490;10.174;2023-07-28T02:55:20;23.00;73.10
3504;DHT22;1766;53.490;10.174;2023-07-28T02:57:22;23.00;73.20
3504;DHT22;1766;53.490;10.174;2023-07-28T02:59:24;23.00;73.10
3504;DHT22;1766;53.490;10.174;2023-07-28T03:01:26;23.00;73.10
3504;DHT22;1766;53.490;10.174;2023-07-28T03:03:33;23.00;73.10
3504;DHT22;1766;53.490;10.174;2023-07-28T03:05:37;23.00;72.90
3504;DHT22;1766;53.490;10.174;2023-07-28T03:07:39;23.00;73.00
3504;DHT22;1766;53.490;10.174;2023-07-28T03:09:41;22.90;72.80
3504;DHT22;1766;53.490;10.174;2023-07-28T03:11:43;22.90;72.90
3504;DHT22;1766;53.490;10.174;2023-07-28T03:13:45;22.90;72.80
3504;DHT22;1766;53.490;10.174;2023-07-28T03:15:47;22.80;72.80
3504;DHT22;1766;53.490;10.174;2023-07-28T03:17:48;22.80;73.10
3504;DHT22;1766;53.490;10.174;2023-07-28T03:19:50;22.70;73.00
3504;DHT22;1766;53.490;10.174;2023-07-28T03:21:53;22.70;73.20
3504;DHT22;1766;53.490;10.174;2023-07-28T03:23:55;22.70;73.40
3504;DHT22;1766;53.490;10.174;2023-07-28T03:25:57;22.70;73.40
3504;DHT22;1766;53.490;10.174;2023-07-28T03:27:59;22.60;73.50
3504;DHT22;1766;53.490;10.174;2023-07-28T03:30:00;22.60;73.50
3504;DHT22;1766;53.490;10.174;2023-07-28T03:32:03;22.70;73.80
3504;DHT22;1766;53.490;10.174;2023-07-28T03:34:05;22.70;73.80
3504;DHT22;1766;53.490;10.174;2023-07-28T03:36:07;22.70;73.80
3504;DHT22;1766;53.490;10.174;2023-07-28T03:38:10;22.70;73.80
3504;DHT22;1766;53.490;10.174;2023-07-28T03:40:13;22.70;73.20
3504;DHT22;1766;53.490;10.174;2023-07-28T03:42:15;22.70;73.70
3504;DHT22;1766;53.490;10.174;2023-07-28T03:44:16;22.70;73.60
3504;DHT22;1766;53.490;10.174;2023-07-28T03:46:20;22.70;73.70
3504;DHT22;1766;53.490;10.174;2023-07-28T03:48:22;22.70;73.70
3504;DHT22;1766;53.490;10.174;2023-07-28T03:50:23;22.70;73.70
3504;DHT22;1766;53.490;10.174;2023-07-28T03:52:26;22.70;73.70
3504;DHT22;1766;53.490;10.174;2023-07-28T03:54:30;22.70;73.70
3504;DHT22;1766;53.490;10.174;2023-07-28T03:56:32;22.70;73.80
3504;DHT22;1766;53.490;10.174;2023-07-28T03:58:34;22.70;73.90
3504;DHT22;1766;53.490;10.174;2023-07-28T04:00:35;22.70;73.80
3504;DHT22;1766;53.490;10.174;2023-07-28T04:02:37;22.70;73.70
3504;DHT22;1766;53.490;10.174;2023-07-28T04:04:39;22.70;73.90
3504;DHT22;1766;53.490;10.174;2023-07-28T04:06:43;22.80;73.80
3504;DHT22;1766;53.490;10.174;2023-07-28T04:08:46;22.80;73.80
3504;DHT22;1766;53.490;10.174;2023-07-28T04:10:49;22.70;73.50
3504;DHT22;1766;53.490;10.174;2023-07-28T04:12:51;22.70;73.60
3504;DHT22;1766;53.490;10.174;2023-07-28T04:14:53;22.70;73.80
3504;DHT22;1766;53.490;10.174;2023-07-28T04:16:55;22.70;73.80
3504;DHT22;1766;53.490;10.174;2023-07-28T04:18:57;22.70;73.90
3504;DHT22;1766;53.490;10.174;2023-07-28T04:20:59;22.70;73.80
3504;DHT22;1766;53.490;10.174;2023-07-28T04:23:01;22.70;73.80
3504;DHT22;1766;53.490;10.174;2023-07-28T04:25:04;22.80;73.80
3504;DHT22;1766;53.490;10.174;2023-07-28T04:27:07;22.80;73.90
3504;DHT22;1766;53.490;10.174;2023-07-28T04:29:09;22.70;73.90
3504;DHT22;1766;53.490;10.174;2023-07-28T04:31:11;22.80;73.90
3504;DHT22;1766;53.490;10.174;2023-07-28T04:33:13;22.80;74.00
3504;DHT22;1766;53.490;10.174;2023-07-28T04:35:17;22.80;73.90
3504;DHT22;1766;53.490;10.174;2023-07-28T04:37:19;22.80;74.20
3504;DHT22;1766;53.490;10.174;2023-07-28T04:39:21;22.80;74.00
3504;DHT22;1766;53.490;10.174;2023-07-28T04:41:23;22.80;74.10
3504;DHT22;1766;53.490;10.174;2023-07-28T04:43:26;22.80;74.10
3504;DHT22;1766;53.490;10.174;2023-07-28T04:45:29;22.90;74.30
3504;DHT22;1766;53.490;10.174;2023-07-28T04:47:31;22.90;74.20
3504;DHT22;1766;53.490;10.174;2023-07-28T04:49:32;22.90;74.20
3504;DHT22;1766;53.490;10.174;2023-07-28T04:51:34;22.90;74.10
3504;DHT22;1766;53.490;10.174;2023-07-28T04:53:36;22.90;74.10
3504;DHT22;1766;53.490;10.174;2023-07-28T04:55:38;22.90;74.10
3504;DHT22;1766;53.490;10.174;2023-07-28T04:57:40;23.00;74.30
3504;DHT22;1766;53.490;10.174;2023-07-28T04:59:44;23.00;74.20
3504;DHT22;1766;53.490;10.174;2023-07-28T05:01:46;23.00;74.30
3504;DHT22;1766;53.490;10.174;2023-07-28T05:03:47;23.00;74.20
3504;DHT22;1766;53.490;10.174;2023-07-28T05:05:50;23.00;75.00
3504;DHT22;1766;53.490;10.174;2023-07-28T05:07:51;23.00;74.30
3504;DHT22;1766;53.490;10.174;2023-07-28T05:09:53;23.10;74.30
3504;DHT22;1766;53.490;10.174;2023-07-28T05:11:55;23.10;74.50
3504;DHT22;1766;53.490;10.174;2023-07-28T05:13:56;23.10;74.50
3504;DHT22;1766;53.490;10.174;2023-07-28T05:15:59;23.10;74.30
3504;DHT22;1766;53.490;10.174;2023-07-28T05:18:01;23.10;74.40
3504;DHT22;1766;53.490;10.174;2023-07-28T05:20:03;23.20;74.50
3504;DHT22;1766;53.490;10.174;2023-07-28T05:22:06;23.30;74.60
3504;DHT22;1766;53.490;10.174;2023-07-28T05:24:08;23.20;74.40
3504;DHT22;1766;53.490;10.174;2023-07-28T05:26:10;23.20;74.50
3504;DHT22;1766;53.490;10.174;2023-07-28T05:28:12;23.30;74.60
3504;DHT22;1766;53.490;10.174;2023-07-28T05:30:14;23.30;74.60
3504;DHT22;1766;53.490;10.174;2023-07-28T05:32:18;23.30;74.70
3504;DHT22;1766;53.490;10.174;2023-07-28T05:34:20;23.40;74.60
3504;DHT22;1766;53.490;10.174;2023-07-28T05:36:23;23.40;74.70
3504;DHT22;1766;53.490;10.174;2023-07-28T05:38:25;23.40;74.70
3504;DHT22;1766;53.490;10.174;2023-07-28T05:40:26;23.40;74.60
3504;DHT22;1766;53.490;10.174;2023-07-28T05:42:29;23.40;74.50
3504;DHT22;1766;53.490;10.174;2023-07-28T05:44:31;23.40;74.50
3504;DHT22;1766;53.490;10.174;2023-07-28T05:46:33;23.50;74.70
3504;DHT22;1766;53.490;10.174;2023-07-28T05:48:36;23.50;74.80
3504;DHT22;1766;53.490;10.174;2023-07-28T05:50:38;23.50;74.70
3504;DHT22;1766;53.490;10.174;2023-07-28T05:52:40;23.60;74.90
3504;DHT22;1766;53.490;10.174;2023-07-28T05:54:43;23.60;74.80
3504;DHT22;1766;53.490;10.174;2023-07-28T05:56:45;23.60;74.80
3504;DHT22;1766;53.490;10.174;2023-07-28T05:58:47;23.60;74.50
3504;DHT22;1766;53.490;10.174;2023-07-28T06:00:49;23.60;74.60
3504;DHT22;1766;53.490;10.174;2023-07-28T06:02:52;23.60;74.20
3504;DHT22;1766;53.490;10.174;2023-07-28T06:04:55;23.60;74.30
3504;DHT22;1766;53.490;10.174;2023-07-28T06:06:57;23.60;74.30
3504;DHT22;1766;53.490;10.174;2023-07-28T06:08:59;23.70;74.20
3504;DHT22;1766;53.490;10.174;2023-07-28T06:11:03;23.60;73.80
3504;DHT22;1766;53.490;10.174;2023-07-28T06:13:05;23.60;73.90
3504;DHT22;1766;53.490;10.174;2023-07-28T06:15:07;23.70;74.00
3504;DHT22;1766;53.490;10.174;2023-07-28T06:17:09;23.70;74.10
3504;DHT22;1766;53.490;10.174;2023-07-28T06:19:11;23.70;73.50
3504;DHT22;1766;53.490;10.174;2023-07-28T06:21:14;23.70;73.50
3504;DHT22;1766;53.490;10.174;2023-07-28T06:23:16;23.70;74.10
3504;DHT22;1766;53.490;10.174;2023-07-28T06:25:18;23.70;73.40
3504;DHT22;1766;53.490;10.174;2023-07-28T06:27:21;23.70;73.60
3504;DHT22;1766;53.490;10.174;2023-07-28T06:29:26;23.80;74.10
3504;DHT22;1766;53.490;10.174;2023-07-28T06:31:27;23.80;73.40
3504;DHT22;1766;53.490;10.174;2023-07-28T06:33:29;23.80;73.20
3504;DHT22;1766;53.490;10.174;2023-07-28T06:35:31;23.80;73.10
3504;DHT22;1766;53.490;10.174;2023-07-28T06:37:35;23.80;72.80
3504;DHT22;1766;53.490;10.174;2023-07-28T06:39:38;23.80;73.10
3504;DHT22;1766;53.490;10.174;2023-07-28T06:41:41;23.80;73.10
3504;DHT22;1766;53.490;10.174;2023-07-28T06:43:43;23.80;73.10
3504;DHT22;1766;53.490;10.174;2023-07-28T06:45:45;23.90;72.90
3504;DHT22;1766;53.490;10.174;2023-07-28T06:47:47;23.90;72.70
3504;DHT22;1766;53.490;10.174;2023-07-28T06:49:52;23.80;72.70
3504;DHT22;1766;53.490;10.174;2023-07-28T06:51:54;23.90;73.10
3504;DHT22;1766;53.490;10.174;2023-07-28T06:53:58;24.00;72.80
3504;DHT22;1766;53.490;10.174;2023-07-28T06:55:59;24.00;72.30
3504;DHT22;1766;53.490;10.174;2023-07-28T06:58:01;24.00;72.20
3504;DHT22;1766;53.490;10.174;2023-07-28T07:00:03;24.00;72.00
3504;DHT22;1766;53.490;10.174;2023-07-28T07:02:05;24.00;72.00
3504;DHT22;1766;53.490;10.174;2023-07-28T07:04:07;24.00;71.70
3504;DHT22;1766;53.490;10.174;2023-07-28T07:06:09;24.10;71.80
3504;DHT22;1766;53.490;10.174;2023-07-28T07:08:11;24.10;71.80
3504;DHT22;1766;53.490;10.174;2023-07-28T07:10:15;24.10;71.80
3504;DHT22;1766;53.490;10.174;2023-07-28T07:12:16;24.20;71.90
3504;DHT22;1766;53.490;10.174;2023-07-28T07:14:19;24.20;71.70
3504;DHT22;1766;53.490;10.174;2023-07-28T07:16:21;24.40;71.90
3504;DHT22;1766;53.490;10.174;2023-07-28T07:18:23;24.40;71.50
3504;DHT22;1766;53.490;10.174;2023-07-28T07:20:26;24.40;71.20
3504;DHT22;1766;53.490;10.174;2023-07-28T07:22:28;24.40;70.80
3504;DHT22;1766;53.490;10.174;2023-07-28T07:24:30;24.50;70.30
3504;DHT22;1766;53.490;10.174;2023-07-28T07:26:33;24.40;70.10
3504;DHT22;1766;53.490;10.174;2023-07-28T07:28:35;24.40;69.90
3504;DHT22;1766;53.490;10.174;2023-07-28T07:30:37;24.40;69.90
3504;DHT22;1766;53.490;10.174;2023-07-28T07:32:41;24.40;69.40
3504;DHT22;1766;53.490;10.174;2023-07-28T07:34:42;24.40;69.60
3504;DHT22;1766;53.490;10.174;2023-07-28T07:36:45;24.40;69.30
3504;DHT22;1766;53.490;10.174;2023-07-28T07:38:47;24.40;69.10
3504;DHT22;1766;53.490;10.174;2023-07-28T07:40:50;24.40;68.90
3504;DHT22;1766;53.490;10.174;2023-07-28T07:42:54;24.40;68.60
3504;DHT22;1766;53.490;10.174;2023-07-28T07:44:56;24.30;68.70
3504;DHT22;1766;53.490;10.174;2023-07-28T07:47:00;24.40;68.80
3504;DHT22;1766;53.490;10.174;2023-07-28T07:49:03;24.40;68.70
3504;DHT22;1766;53.490;10.174;2023-07-28T07:51:07;24.50;68.70
3504;DHT22;1766;53.490;10.174;2023-07-28T07:53:09;24.60;68.50
3504;DHT22;1766;53.490;10.174;2023-07-28T07:55:11;24.60;68.10
3504;DHT22;1766;53.490;10.174;2023-07-28T07:57:13;24.70;67.80
3504;DHT22;1766;53.490;10.174;2023-07-28T07:59:16;24.70;67.60
3504;DHT22;1766;53.490;10.174;2023-07-28T08:01:18;24.70;67.10
3504;DHT22;1766;53.490;10.174;2023-07-28T08:03:20;24.70;67.00
3504;DHT22;1766;53.490;10.174;2023-07-28T08:05:21;24.70;66.60
3504;DHT22;1766;53.490;10.174;2023-07-28T08:07:24;24.80;66.60
3504;DHT22;1766;53.490;10.174;2023-07-28T08:09:26;24.80;66.00
3504;DHT22;1766;53.490;10.174;2023-07-28T08:11:28;24.80;65.70
3504;DHT22;1766;53.490;10.174;2023-07-28T08:13:30;24.80;65.80
3504;DHT22;1766;53.490;10.174;2023-07-28T08:15:33;24.90;65.60
3504;DHT22;1766;53.490;10.174;2023-07-28T08:17:35;24.90;65.70
3504;DHT22;1766;53.490;10.174;2023-07-28T08:19:37;24.90;65.30
3504;DHT22;1766;53.490;10.174;2023-07-28T08:21:39;24.90;65.00
3504;DHT22;1766;53.490;10.174;2023-07-28T08:23:41;24.90;64.80
3504;DHT22;1766;53.490;10.174;2023-07-28T08:25:43;24.90;64.80
3504;DHT22;1766;53.490;10.174;2023-07-28T08:27:45;25.00;65.00
3504;DHT22;1766;53.490;10.174;2023-07-28T08:29:47;25.00;65.00
3504;DHT22;1766;53.490;10.174;2023-07-28T08:31:50;25.10;65.20
3504;DHT22;1766;53.490;10.174;2023-07-28T08:33:52;25.10;64.80
3504;DHT22;1766;53.490;10.174;2023-07-28T08:35:54;25.00;64.60
3504;DHT22;1766;53.490;10.174;2023-07-28T08:37:55;25.00;64.60
3504;DHT22;1766;53.490;10.174;2023-07-28T08:39:57;25.00;64.70
3504;DHT22;1766;53.490;10.174;2023-07-28T08:42:00;25.00;64.60
3504;DHT22;1766;53.490;10.174;2023-07-28T08:44:02;25.10;65.10
3504;DHT22;1766;53.490;10.174;2023-07-28T08:46:04;25.10;65.00
3504;DHT22;1766;53.490;10.174;2023-07-28T08:48:08;25.10;64.70
3504;DHT22;1766;53.490;10.174;2023-07-28T08:50:10;25.20;64.40
3504;DHT22;1766;53.490;10.174;2023-07-28T08:52:15;25.10;64.10
3504;DHT22;1766;53.490;10.174;2023-07-28T08:54:18;25.20;64.20
3504;DHT22;1766;53.490;10.174;2023-07-28T08:56:21;25.20;63.60
3504;DHT22;1766;53.490;10.174;2023-07-28T08:58:24;25.20;63.70
3504;DHT22;1766;53.490;10.174;2023-07-28T09:00:25;25.10;63.20
3504;DHT22;1766;53.490;10.174;2023-07-28T09:02:27;25.10;63.20
3504;DHT22;1766;53.490;10.174;2023-07-28T09:04:32;25.10;63.30
3504;DHT22;1766;53.490;10.174;2023-07-28T09:06:34;25.00;62.90
3504;DHT22;1766;53.490;10.174;2023-07-28T09:08:36;25.10;63.60
3504;DHT22;1766;53.490;10.174;2023-07-28T09:10:41;25.00;62.90
3504;DHT22;1766;53.490;10.174;2023-07-28T09:12:48;25.00;62.80
3504;DHT22;1766;53.490;10.174;2023-07-28T09:14:56;25.10;62.90
3504;DHT22;1766;53.490;10.174;2023-07-28T09:17:06;25.10;63.10
3504;DHT22;1766;53.490;10.174;2023-07-28T09:19:10;25.10;63.10
3504;DHT22;1766;53.490;10.174;2023-07-28T09:21:18;25.20;63.20
3504;DHT22;1766;53.490;10.174;2023-07-28T09:23:28;25.20;63.30
3504;DHT22;1766;53.490;10.174;2023-07-28T09:25:32;25.30;63.50
3504;DHT22;1766;53.490;10.174;2023-07-28T09:27:34;25.30;62.90
3504;DHT22;1766;53.490;10.174;2023-07-28T09:29:36;25.30;62.60
3504;DHT22;1766;53.490;10.174;2023-07-28T09:31:38;25.40;62.60
3504;DHT22;1766;53.490;10.174;2023-07-28T09:33:40;25.40;62.40
3504;DHT22;1766;53.490;10.174;2023-07-28T09:35:48;25.50;62.40
3504;DHT22;1766;53.490;10.174;2023-07-28T09:37:52;25.50;62.20
3504;DHT22;1766;53.490;10.174;2023-07-28T09:39:55;25.50;61.70
3504;DHT22;1766;53.490;10.174;2023-07-28T09:41:59;25.60;61.70
3504;DHT22;1766;53.490;10.174;2023-07-28T09:44:02;25.70;61.80
3504;DHT22;1766;53.490;10.174;2023-07-28T09:46:05;25.70;61.40
3504;DHT22;1766;53.490;10.174;2023-07-28T09:48:10;25.70;61.30
3504;DHT22;1766;53.490;10.174;2023-07-28T09:50:15;25.70;60.90
3504;DHT22;1766;53.490;10.174;2023-07-28T09:52:18;25.70;60.90
3504;DHT22;1766;53.490;10.174;2023-07-28T09:54:24;25.70;60.70
3504;DHT22;1766;53.490;10.174;2023-07-28T09:56:29;25.70;60.70
3504;DHT22;1766;53.490;10.174;2023-07-28T09:58:34;25.70;60.60
3504;DHT22;1766;53.490;10.174;2023-07-28T10:00:40;25.80;60.60
3504;DHT22;1766;53.490;10.174;2023-07-28T10:02:44;25.90;60.70
3504;DHT22;1766;53.490;10.174;2023-07-28T10:04:47;25.90;61.00
3504;DHT22;1766;53.490;10.174;2023-07-28T10:06:49;26.10;60.60
3504;DHT22;1766;53.490;10.174;2023-07-28T10:08:51;26.10;60.60
3504;DHT22;1766;53.490;10.174;2023-07-28T10:10:55;26.20;60.10
3504;DHT22;1766;53.490;10.174;2023-07-28T10:12:58;26.20;59.90
3504;DHT22;1766;53.490;10.174;2023-07-28T10:15:02;26.20;59.90
3504;DHT22;1766;53.490;10.174;2023-07-28T10:17:06;26.30;59.90
3504;DHT22;1766;53.490;10.174;2023-07-28T10:19:08;26.40;59.80
3504;DHT22;1766;53.490;10.174;2023-07-28T10:21:15;26.40;59.90
3504;DHT22;1766;53.490;10.174;2023-07-28T10:23:20;26.50;59.60
3504;DHT22;1766;53.490;10.174;2023-07-28T10:25:25;26.50;59.30
3504;DHT22;1766;53.490;10.174;2023-07-28T10:27:32;26.50;58.90
3504;DHT22;1766;53.490;10.174;2023-07-28T10:29:37;26.50;58.80
3504;DHT22;1766;53.490;10.174;2023-07-28T10:31:50;26.50;58.70
3504;DHT22;1766;53.490;10.174;2023-07-28T10:33:52;26.50;58.80
3504;DHT22;1766;53.490;10.174;2023-07-28T10:35:54;26.60;58.70
3504;DHT22;1766;53.490;10.174;2023-07-28T10:37:55;26.70;58.50
3504;DHT22;1766;53.490;10.174;2023-07-28T10:40:21;26.80;58.30
3504;DHT22;1766;53.490;10.174;2023-07-28T10:42:23;26.90;58.20
3504;DHT22;1766;53.490;10.174;2023-07-28T10:44:28;26.90;57.70
3504;DHT22;1766;53.490;10.174;2023-07-28T10:46:35;26.90;57.30
3504;DHT22;1766;53.490;10.174;2023-07-28T10:48:41;26.80;56.90
3504;DHT22;1766;53.490;10.174;2023-07-28T10:50:44;26.80;56.90
3504;DHT22;1766;53.490;10.174;2023-07-28T10:52:46;26.80;56.50
3504;DHT22;1766;53.490;10.174;2023-07-28T10:54:48;26.70;56.40
3504;DHT22;1766;53.490;10.174;2023-07-28T10:56:50;26.70;56.30
3504;DHT22;1766;53.490;10.174;2023-07-28T10:58:56;26.70;56.50
3504;DHT22;1766;53.490;10.174;2023-07-28T11:01:00;26.70;56.40
3504;DHT22;1766;53.490;10.174;2023-07-28T11:03:02;26.60;56.10
3504;DHT22;1766;53.490;10.174;2023-07-28T11:05:09;26.60;56.20
3504;DHT22;1766;53.490;10.174;2023-07-28T11:07:12;26.60;56.30
3504;DHT22;1766;53.490;10.174;2023-07-28T11:09:16;26.60;56.20
3504;DHT22;1766;53.490;10.174;2023-07-28T11:11:19;26.50;56.20
3504;DHT22;1766;53.490;10.174;2023-07-28T11:13:22;26.50;56.10
3504;DHT22;1766;53.490;10.174;2023-07-28T11:15:25;26.50;56.40
3504;DHT22;1766;53.490;10.174;2023-07-28T11:17:28;26.60;56.70
3504;DHT22;1766;53.490;10.174;2023-07-28T11:19:30;26.60;56.70
3504;DHT22;1766;53.490;10.174;2023-07-28T11:21:36;26.70;56.70
3504;DHT22;1766;53.490;10.174;2023-07-28T11:23:44;26.90;57.00
3504;DHT22;1766;53.490;10.174;2023-07-28T11:25:47;27.00;56.70
3504;DHT22;1766;53.490;10.174;2023-07-28T11:27:49;27.10;56.60
3504;DHT22;1766;53.490;10.174;2023-07-28T11:29:51;27.20;56.50
3504;DHT22;1766;53.490;10.174;2023-07-28T11:31:53;27.30;55.80
3504;DHT22;1766;53.490;10.174;2023-07-28T11:33:56;27.30;55.70
3504;DHT22;1766;53.490;10.174;2023-07-28T11:35:59;27.40;55.70
3504;DHT22;1766;53.490;10.174;2023-07-28T11:38:01;27.50;55.40
3504;DHT22;1766;53.490;10.174;2023-07-28T11:40:05;27.60;54.90
3504;DHT22;1766;53.490;10.174;2023-07-28T11:42:09;27.60;54.70
3504;DHT22;1766;53.490;10.174;2023-07-28T11:44:12;27.50;54.60
3504;DHT22;1766;53.490;10.174;2023-07-28T11:46:33;27.50;54.50
3504;DHT22;1766;53.490;10.174;2023-07-28T11:48:36;27.50;54.40
3504;DHT22;1766;53.490;10.174;2023-07-28T11:50:41;27.50;54.20
3504;DHT22;1766;53.490;10.174;2023-07-28T11:52:43;27.60;54.40
3504;DHT22;1766;53.490;10.174;2023-07-28T11:54:47;27.60;54.10
3504;DHT22;1766;53.490;10.174;2023-07-28T11:56:50;27.70;53.70
3504;DHT22;1766;53.490;10.174;2023-07-28T11:58:53;27.70;53.50
3504;DHT22;1766;53.490;10.174;2023-07-28T12:00:55;27.70;53.40
3504;DHT22;1766;53.490;10.174;2023-07-28T12:03:01;27.70;53.40
3504;DHT22;1766;53.490;10.174;2023-07-28T12:05:12;27.70;53.70
3504;DHT22;1766;53.490;10.174;2023-07-28T12:07:16;27.70;53.70
3504;DHT22;1766;53.490;10.174;2023-07-28T12:09:17;27.80;53.10
3504;DHT22;1766;53.490;10.174;2023-07-28T12:11:22;27.80;53.10
3504;DHT22;1766;53.490;10.174;2023-07-28T12:13:24;27.80;53.10
3504;DHT22;1766;53.490;10.174;2023-07-28T12:15:28;27.80;52.90
3504;DHT22;1766;53.490;10.174;2023-07-28T12:17:31;27.90;53.10
3504;DHT22;1766;53.490;10.174;2023-07-28T12:19:40;27.90;52.80
3504;DHT22;1766;53.490;10.174;2023-07-28T12:21:43;28.00;53.20
3504;DHT22;1766;53.490;10.174;2023-07-28T12:23:46;28.00;53.50
3504;DHT22;1766;53.490;10.174;2023-07-28T12:25:49;28.20;53.80
3504;DHT22;1766;53.490;10.174;2023-07-28T12:27:51;28.40;53.90
3504;DHT22;1766;53.490;10.174;2023-07-28T12:29:52;28.60;53.50
3504;DHT22;1766;53.490;10.174;2023-07-28T12:31:54;28.60;52.70
3504;DHT22;1766;53.490;10.174;2023-07-28T12:33:56;28.50;52.10
3504;DHT22;1766;53.490;10.174;2023-07-28T12:35:59;28.50;51.90
3504;DHT22;1766;53.490;10.174;2023-07-28T12:38:01;28.30;51.60
3504;DHT22;1766;53.490;10.174;2023-07-28T12:40:07;28.30;51.80
3504;DHT22;1766;53.490;10.174;2023-07-28T12:42:11;28.30;52.00
3504;DHT22;1766;53.490;10.174;2023-07-28T12:44:13;28.30;52.00
3504;DHT22;1766;53.490;10.174;2023-07-28T12:46:15;28.30;51.80
3504;DHT22;1766;53.490;10.174;2023-07-28T12:48:17;28.20;51.70
3504;DHT22;1766;53.490;10.174;2023-07-28T12:50:20;28.20;51.70
3504;DHT22;1766;53.490;10.174;2023-07-28T12:52:21;28.20;51.90
3504;DHT22;1766;53.490;10.174;2023-07-28T12:54:23;28.20;51.80
3504;DHT22;1766;53.490;10.174;2023-07-28T12:56:27;28.10;51.80
3504;DHT22;1766;53.490;10.174;2023-07-28T12:58:30;28.10;51.70
3504;DHT22;1766;53.490;10.174;2023-07-28T13:00:34;28.10;51.70
3504;DHT22;1766;53.490;10.174;2023-07-28T13:02:36;28.10;52.00
3504;DHT22;1766;53.490;10.174;2023-07-28T13:04:37;28.10;51.90
3504;DHT22;1766;53.490;10.174;2023-07-28T13:06:39;28.10;51.90
3504;DHT22;1766;53.490;10.174;2023-07-28T13:08:41;28.20;51.90
3504;DHT22;1766;53.490;10.174;2023-07-28T13:10:43;28.20;51.70